METAR Reports LIMOGES - BRIVE - BERGERAC - ANGOULEME - CLERMOND-FERRAND - AURILLAC

 

LFBL - Aeroport de Limoges-Bellegarde
Distance from station: NE 45km
Mise à jour: 20/09/2021 02:00
Nuageux
Nuageux
 Wind from O
Vent: O 11 km/h
Température: 13°C
Point de rosée: 12°C
Humidité: 94%
Baromètre: 1020 hPa
Clouds: Nuageux
Visibility: 10 km
Cloud details: Quelques nuages 914 m
Nuageux 1707 m
Nuageux 2012 m
2021/09/20 00:00 LFBL 200000Z AUTO 27006KT 9999 FEW030 BKN056 BKN066 13/12 Q1020 TEMPO 2000 -RA OVC002 SCT030TCU
LFSL - Aeroport de Brive-Vallee de la Dordogne
Distance from station: S 40km
Mise à jour: 20/09/2021 02:00
Clair
Clair
 Wind from varies
Vent: varies 6 km/h
Température: 14°C
Point de rosée: 13°C
Humidité: 94%
Baromètre: 1021 hPa
Résumé: Clair
Visibility: greater than 10 km
2021/09/20 00:00 LFSL 200000Z AUTO VRB03KT CAVOK 14/13 Q1021
 
LFBE - Aeroport de Bergerac-Dordogne-Perigord
Distance from station: SO 150km
Mise à jour: 20/09/2021 02:00
Orages
Orages
 Wind from SO
Vent: SO 4 km/h
Température: 15°C
Point de rosée: 15°C
Humidité: 100%
Baromètre: 1021 hPa
Clouds: Orages
Visibility: 10 km
Cloud details: Nuageux 244 m
Nuageux 396 m
Couvert 2804 m
2021/09/20 00:00 LFBE 200000Z AUTO 23002KT 9999 BKN008/// BKN013/// OVC092/// ///CB 15/15 Q1021 TEMPO 3000 SHRA BKN012 FEW025CB BKN030TCU
LFBU - Aeroport international Angouleme-Cognac
Distance from station: SSO 120km
Mise à jour: 20/09/2021 02:00
Orages
Orages
 Wind from OSO
Vent: OSO 6 km/h
Température: 15°C
Point de rosée: 13°C
Humidité: 88%
Baromètre: 1020 hPa
Clouds: Orages
Visibility: 10 km
Cloud details: Quelques nuages 1372 m
Nuageux 1646 m
Couvert 2256 m
2021/09/20 00:00 LFBU 200000Z AUTO 25003KT 220V280 9999 FEW045/// BKN054/// OVC074/// ///CB 15/13 Q1020
 
LFLC - Aeroport de Clermont-Ferrand Auvergne
Distance from station: E 200km
Mise à jour: 20/09/2021 02:00
Pluie légère, Orages
Pluie légère, Orages
 Wind from calm
Vent: calme
Température: 14°C
Point de rosée: 13°C
Humidité: 94%
Baromètre: 1019 hPa
Résumé: Pluie légère
Clouds: Orages
Visibility: 10 km
Cloud details: Nuageux 853 m
Nuageux 1158 m
Couvert 1341 m
2021/09/20 00:00 LFLC 200000Z AUTO 00000KT 9999 -RA BKN028/// BKN038/// OVC044/// ///CB 14/13 Q1019 BECMG BKN030
LFLW - Aeroport Aurillac
Distance from station: SE 120km
Mise à jour: 15/07/2021 06:30
NOT Current
Brouillard
Brouillard
 Wind from O
Vent: O 11 km/h
Température: 14°C
Point de rosée: 13°C
Humidité: 94%
Baromètre: 1022 hPa
Résumé: Brouillard
Visibility: 3 km
2021/07/15 04:30 LFLW 150430Z AUTO 28006KT 240V330 3400 BR ////// 14/13 Q1022